N81HU -KGWS
Flight info
| Callsign | N81HU |
|---|---|
| Flight time | N/A |
| Altitude | VFR |
| Route | |
| Aircraft | C210/L-DOV/C |
Departure
| Time | N/A |
|---|---|
| Airport | - |
Arrival
| Time | 2026-04-22 00:36 |
|---|---|
| Airport | Glenwood Springs Municipal Airport (KGWS) |
| Time | Latitude | Longitude | Altitude | Speed | Heading |
|---|---|---|---|---|---|
| 2026-04-22 00:23 | 39.26717 | -106.88086 | 9132 ft | 142 kts | 310° |
| 2026-04-22 00:23 | 39.27457 | -106.88973 | 9338 ft | 147 kts | 309° |
| 2026-04-22 00:23 | 39.28031 | -106.90035 | 9649 ft | 144 kts | 293° |
| 2026-04-22 00:24 | 39.28472 | -106.91190 | 9923 ft | 147 kts | 292° |
| 2026-04-22 00:24 | 39.28954 | -106.92373 | 10137 ft | 152 kts | 294° |
| 2026-04-22 00:24 | 39.29502 | -106.93594 | 10234 ft | 163 kts | 298° |
| 2026-04-22 00:24 | 39.30159 | -106.94840 | 10229 ft | 169 kts | 299° |
| 2026-04-22 00:25 | 39.30873 | -106.96039 | 10274 ft | 168 kts | 303° |
| 2026-04-22 00:25 | 39.31627 | -106.97202 | 10294 ft | 170 kts | 306° |
| 2026-04-22 00:25 | 39.32403 | -106.98339 | 10334 ft | 168 kts | 306° |
| 2026-04-22 00:25 | 39.33162 | -106.99499 | 10257 ft | 170 kts | 304° |
| 2026-04-22 00:26 | 39.33897 | -107.00624 | 10337 ft | 159 kts | 306° |
| 2026-04-22 00:26 | 39.34624 | -107.01730 | 10244 ft | 164 kts | 307° |
| 2026-04-22 00:26 | 39.35370 | -107.02840 | 10222 ft | 163 kts | 306° |
| 2026-04-22 00:26 | 39.36118 | -107.03957 | 10191 ft | 165 kts | 306° |
| 2026-04-22 00:27 | 39.36877 | -107.05058 | 10201 ft | 164 kts | 308° |
| 2026-04-22 00:27 | 39.37645 | -107.06182 | 10251 ft | 166 kts | 307° |
| 2026-04-22 00:27 | 39.38415 | -107.07266 | 10360 ft | 162 kts | 309° |
| 2026-04-22 00:27 | 39.39384 | -107.08031 | 10402 ft | 170 kts | 340° |
| 2026-04-22 00:28 | 39.40588 | -107.08171 | 10395 ft | 178 kts | 355° |
| 2026-04-22 00:28 | 39.41818 | -107.08228 | 10488 ft | 175 kts | 353° |
| 2026-04-22 00:28 | 39.42957 | -107.08581 | 10576 ft | 165 kts | 327° |
| 2026-04-22 00:28 | 39.43761 | -107.09537 | 10623 ft | 157 kts | 293° |
| 2026-04-22 00:29 | 39.43952 | -107.10909 | 10566 ft | 156 kts | 260° |
| 2026-04-22 00:29 | 39.43568 | -107.12220 | 10530 ft | 157 kts | 241° |
| 2026-04-22 00:29 | 39.43052 | -107.13467 | 10523 ft | 157 kts | 240° |
| 2026-04-22 00:29 | 39.42529 | -107.14724 | 10482 ft | 159 kts | 240° |
| 2026-04-22 00:30 | 39.42100 | -107.16035 | 10456 ft | 160 kts | 250° |
| 2026-04-22 00:30 | 39.41841 | -107.17447 | 10385 ft | 162 kts | 257° |
| 2026-04-22 00:30 | 39.41799 | -107.18901 | 10375 ft | 163 kts | 271° |
| 2026-04-22 00:30 | 39.42054 | -107.20353 | 10235 ft | 168 kts | 284° |
| 2026-04-22 00:31 | 39.42350 | -107.21280 | 10112 ft | 169 kts | 291° |
| 2026-04-22 00:31 | 39.42947 | -107.22612 | 9893 ft | 172 kts | 298° |
| 2026-04-22 00:31 | 39.43876 | -107.24321 | 9530 ft | 176 kts | 302° |
| 2026-04-22 00:31 | 39.44648 | -107.25545 | 9231 ft | 176 kts | 308° |
| 2026-04-22 00:32 | 39.45517 | -107.26650 | 8842 ft | 174 kts | 313° |
| 2026-04-22 00:32 | 39.46274 | -107.27769 | 8585 ft | 156 kts | 307° |
| 2026-04-22 00:32 | 39.46983 | -107.28673 | 8313 ft | 132 kts | 295° |
| 2026-04-22 00:32 | 39.46974 | -107.29699 | 7997 ft | 113 kts | 229° |
| 2026-04-22 00:33 | 39.46253 | -107.29848 | 7696 ft | 118 kts | 152° |
| 2026-04-22 00:33 | 39.45610 | -107.29069 | 7218 ft | 134 kts | 139° |
| 2026-04-22 00:33 | 39.44981 | -107.28200 | 7004 ft | 130 kts | 123° |
| 2026-04-22 00:33 | 39.45078 | -107.27107 | 6816 ft | 131 kts | 54° |
| 2026-04-22 00:34 | 39.45553 | -107.26651 | 6583 ft | 127 kts | 17° |
| 2026-04-22 00:34 | 39.46644 | -107.26770 | 6353 ft | 118 kts | 321° |
| 2026-04-22 00:34 | 39.47009 | -107.27254 | 6296 ft | 112 kts | 297° |
| 2026-04-22 00:34 | 39.47363 | -107.28116 | 6227 ft | 108 kts | 293° |
| 2026-04-22 00:35 | 39.47767 | -107.28905 | 6180 ft | 102 kts | 306° |
| 2026-04-22 00:35 | 39.48329 | -107.29483 | 6186 ft | 106 kts | 323° |
| 2026-04-22 00:35 | 39.49198 | -107.30017 | 6143 ft | 103 kts | 328° |
| 2026-04-22 00:35 | 39.49633 | -107.30303 | 6031 ft | 103 kts | 327° |
| 2026-04-22 00:36 | 39.50255 | -107.30694 | 5866 ft | 97 kts | 328° |
| 2026-04-22 00:36 | 39.50746 | -107.31007 | 5858 ft | 61 kts | 335° |
| 2026-04-22 00:36 | 39.50951 | -107.31139 | 5860 ft | 15 kts | 334° |
| 2026-04-22 00:36 | 39.50983 | -107.31180 | 5862 ft | 2 kts | 292° |
| 2026-04-22 00:37 | 39.50988 | -107.31189 | 5862 ft | 0 kts | 345° |
| 2026-04-22 00:41 | 39.50997 | -107.31182 | 5860 ft | 7 kts | 45° |
| 2026-04-22 00:41 | 39.51019 | -107.31129 | 5859 ft | 6 kts | 69° |
| 2026-04-22 00:42 | 39.51004 | -107.31095 | 5860 ft | 4 kts | 159° |
| 2026-04-22 00:42 | 39.51002 | -107.31104 | 5860 ft | 0 kts | 328° |
| 2026-04-22 00:44 | 39.51011 | -107.31110 | 5858 ft | 5 kts | 322° |
| 2026-04-22 00:45 | 39.51000 | -107.31163 | 5864 ft | 5 kts | 194° |
| 2026-04-22 00:45 | 39.50916 | -107.31118 | 5861 ft | 31 kts | 155° |
| 2026-04-22 00:45 | 39.50589 | -107.30908 | 5861 ft | 72 kts | 155° |
| 2026-04-22 00:45 | 39.50073 | -107.30590 | 5953 ft | 89 kts | 158° |
| 2026-04-22 00:46 | 39.49498 | -107.30223 | 6196 ft | 95 kts | 158° |
| 2026-04-22 00:46 | 39.48853 | -107.29807 | 6394 ft | 110 kts | 157° |
| 2026-04-22 00:46 | 39.48265 | -107.29107 | 6674 ft | 121 kts | 131° |
| 2026-04-22 00:46 | 39.47810 | -107.28133 | 6939 ft | 131 kts | 127° |
| 2026-04-22 00:47 | 39.47351 | -107.27106 | 7323 ft | 134 kts | 125° |
| 2026-04-22 00:47 | 39.46949 | -107.25948 | 7559 ft | 146 kts | 112° |
| 2026-04-22 00:47 | 39.46730 | -107.24662 | 7914 ft | 147 kts | 105° |
| 2026-04-22 00:47 | 39.46575 | -107.23337 | 8171 ft | 150 kts | 102° |
| 2026-04-22 00:48 | 39.46532 | -107.21969 | 8360 ft | 155 kts | 90° |
| 2026-04-22 00:48 | 39.46682 | -107.20606 | 8594 ft | 152 kts | 81° |
| 2026-04-22 00:48 | 39.46901 | -107.19277 | 8806 ft | 152 kts | 79° |
| 2026-04-22 00:48 | 39.47188 | -107.17930 | 8959 ft | 156 kts | 73° |
| 2026-04-22 00:49 | 39.47690 | -107.16703 | 9192 ft | 155 kts | 54° |
| 2026-04-22 00:49 | 39.48394 | -107.15649 | 9337 ft | 159 kts | 50° |
| 2026-04-22 00:49 | 39.49103 | -107.14491 | 9416 ft | 168 kts | 53° |
| 2026-04-22 00:49 | 39.49802 | -107.13255 | 9468 ft | 172 kts | 55° |
| 2026-04-22 00:50 | 39.50496 | -107.11970 | 9497 ft | 176 kts | 57° |
| 2026-04-22 00:50 | 39.51158 | -107.10617 | 9503 ft | 178 kts | 59° |
| 2026-04-22 00:50 | 39.51807 | -107.09268 | 9565 ft | 176 kts | 58° |
| 2026-04-22 00:50 | 39.52523 | -107.07956 | 9519 ft | 180 kts | 54° |
| 2026-04-22 00:51 | 39.53324 | -107.06691 | 9463 ft | 183 kts | 49° |
| 2026-04-22 00:51 | 39.54230 | -107.05528 | 9398 ft | 183 kts | 44° |
| 2026-04-22 00:51 | 39.55132 | -107.04368 | 9370 ft | 180 kts | 47° |
| 2026-04-22 00:51 | 39.55952 | -107.03146 | 9191 ft | 181 kts | 48° |
| 2026-04-22 00:52 | 39.56786 | -107.01920 | 9029 ft | 184 kts | 46° |
| 2026-04-22 00:52 | 39.57674 | -107.00743 | 8877 ft | 182 kts | 42° |
| 2026-04-22 00:52 | 39.58617 | -106.99637 | 8694 ft | 182 kts | 41° |
| 2026-04-22 00:52 | 39.59513 | -106.98472 | 8463 ft | 183 kts | 47° |
| 2026-04-22 00:53 | 39.60375 | -106.97243 | 8167 ft | 186 kts | 46° |
| 2026-04-22 00:53 | 39.61283 | -106.96050 | 7908 ft | 184 kts | 45° |
| 2026-04-22 00:53 | 39.62174 | -106.94848 | 7695 ft | 183 kts | 46° |
| 2026-04-22 00:53 | 39.62921 | -106.93572 | 7705 ft | 172 kts | 66° |
| 2026-04-22 00:54 | 39.63079 | -106.92106 | 7750 ft | 162 kts | 93° |
| 2026-04-22 00:54 | 39.63085 | -106.90693 | 7772 ft | 145 kts | 92° |
| 2026-04-22 00:54 | 39.63097 | -106.89501 | 7685 ft | 127 kts | 88° |
| 2026-04-22 00:54 | 39.63149 | -106.88401 | 7626 ft | 119 kts | 88° |
| 2026-04-22 00:55 | 39.63380 | -106.87396 | 7354 ft | 116 kts | 50° |
| 2026-04-22 00:55 | 39.64063 | -106.86911 | 7282 ft | 113 kts | 360° |
| 2026-04-22 00:55 | 39.64719 | -106.88164 | 7131 ft | 105 kts | 248° |
| 2026-04-22 00:56 | 39.64561 | -106.89002 | 6897 ft | 86 kts | 265° |
| 2026-04-22 00:56 | 39.64478 | -106.89770 | 6708 ft | 87 kts | 262° |
| 2026-04-22 00:56 | 39.64392 | -106.90533 | 6555 ft | 83 kts | 263° |
| 2026-04-22 00:56 | 39.64325 | -106.91168 | 6520 ft | 54 kts | 262° |
| 2026-04-22 00:57 | 39.64291 | -106.91453 | 6511 ft | 23 kts | 261° |
| 2026-04-22 00:57 | 39.64240 | -106.91577 | 6507 ft | 7 kts | 196° |
| 2026-04-22 00:57 | 39.64202 | -106.91580 | 6507 ft | 3 kts | 161° |
| 2026-04-22 00:57 | 39.64180 | -106.91550 | 6507 ft | 9 kts | 114° |
| 2026-04-22 00:58 | 39.64185 | -106.91422 | 6511 ft | 18 kts | 82° |
| 2026-04-22 00:58 | 39.64205 | -106.91246 | 6516 ft | 20 kts | 81° |
| 2026-04-22 00:58 | 39.64226 | -106.91055 | 6521 ft | 23 kts | 81° |
| 2026-04-22 00:58 | 39.64247 | -106.90845 | 6527 ft | 24 kts | 80° |
| 2026-04-22 00:59 | 39.64273 | -106.90622 | 6532 ft | 26 kts | 81° |
| 2026-04-22 00:59 | 39.64300 | -106.90395 | 6538 ft | 24 kts | 80° |
| 2026-04-22 00:59 | 39.64321 | -106.90186 | 6543 ft | 20 kts | 81° |
| 2026-04-22 00:59 | 39.64337 | -106.90050 | 6547 ft | 8 kts | 68° |
| 2026-04-22 01:00 | 39.64357 | -106.90020 | 6548 ft | 0 kts | 25° |
| 2026-04-22 01:00 | 39.64360 | -106.90018 | 6548 ft | 4 kts | 20° |
| 2026-04-22 01:01 | 39.64432 | -106.90046 | 6548 ft | 15 kts | 303° |
| 2026-04-22 01:01 | 39.64422 | -106.90280 | 6540 ft | 48 kts | 262° |
| 2026-04-22 01:01 | 39.64355 | -106.90879 | 6559 ft | 81 kts | 262° |
| 2026-04-22 01:01 | 39.64262 | -106.91650 | 6806 ft | 89 kts | 263° |
| 2026-04-22 01:02 | 39.64091 | -106.92467 | 7020 ft | 104 kts | 238° |
| 2026-04-22 01:02 | 39.63447 | -106.92958 | 7286 ft | 115 kts | 186° |
| 2026-04-22 01:02 | 39.62734 | -106.92477 | 7591 ft | 130 kts | 129° |
| 2026-04-22 01:02 | 39.62476 | -106.91266 | 7645 ft | 154 kts | 90° |
| 2026-04-22 01:03 | 39.62558 | -106.89800 | 7652 ft | 175 kts | 86° |
| 2026-04-22 01:03 | 39.62760 | -106.88202 | 7615 ft | 187 kts | 77° |
| 2026-04-22 01:03 | 39.63144 | -106.86560 | 7403 ft | 192 kts | 71° |
| 2026-04-22 01:03 | 39.63576 | -106.84902 | 7397 ft | 196 kts | 73° |
| 2026-04-22 01:04 | 39.63879 | -106.83155 | 7437 ft | 193 kts | 79° |
| 2026-04-22 01:04 | 39.64001 | -106.81465 | 7451 ft | 187 kts | 91° |
| 2026-04-22 01:04 | 39.63870 | -106.79766 | 7387 ft | 189 kts | 103° |
| 2026-04-22 01:04 | 39.63309 | -106.78257 | 7353 ft | 186 kts | 131° |
| 2026-04-22 01:05 | 39.62397 | -106.77107 | 7365 ft | 180 kts | 149° |
| 2026-04-22 01:05 | 39.61304 | -106.76475 | 7490 ft | 168 kts | 172° |
| 2026-04-22 01:05 | 39.60146 | -106.76422 | 7580 ft | 163 kts | 185° |
| 2026-04-22 01:05 | 39.59061 | -106.76499 | 7755 ft | 153 kts | 186° |
| 2026-04-22 01:06 | 39.58004 | -106.76625 | 7896 ft | 152 kts | 184° |
| 2026-04-22 01:06 | 39.56969 | -106.76608 | 8120 ft | 147 kts | 178° |
| 2026-04-22 01:06 | 39.55948 | -106.76414 | 8238 ft | 149 kts | 171° |
| 2026-04-22 01:06 | 39.54992 | -106.75921 | 8457 ft | 150 kts | 155° |
| 2026-04-22 01:07 | 39.54241 | -106.74929 | 8824 ft | 158 kts | 121° |
| 2026-04-22 01:07 | 39.54002 | -106.73526 | 9082 ft | 163 kts | 96° |
| 2026-04-22 01:07 | 39.53831 | -106.72087 | 9263 ft | 162 kts | 107° |
| 2026-04-22 01:07 | 39.53392 | -106.70814 | 9510 ft | 150 kts | 126° |
| 2026-04-22 01:08 | 39.52787 | -106.69736 | 9836 ft | 144 kts | 134° |
| 2026-04-22 01:08 | 39.52060 | -106.68880 | 10151 ft | 142 kts | 147° |
| 2026-04-22 01:08 | 39.51241 | -106.68150 | 10346 ft | 143 kts | 148° |
| 2026-04-22 01:08 | 39.50408 | -106.67427 | 10590 ft | 143 kts | 161° |
| 2026-04-22 01:09 | 39.49467 | -106.67422 | 10740 ft | 137 kts | 204° |
| 2026-04-22 01:09 | 39.48804 | -106.68279 | 10848 ft | 137 kts | 245° |
| 2026-04-22 01:09 | 39.48533 | -106.69456 | 10901 ft | 138 kts | 255° |
| 2026-04-22 01:09 | 39.48091 | -106.70523 | 10911 ft | 137 kts | 221° |
| 2026-04-22 01:10 | 39.47174 | -106.70855 | 11052 ft | 146 kts | 178° |
| 2026-04-22 01:10 | 39.46221 | -106.70316 | 11257 ft | 157 kts | 149° |
| 2026-04-22 01:10 | 39.45352 | -106.69467 | 11500 ft | 160 kts | 146° |
| 2026-04-22 01:10 | 39.44434 | -106.68590 | 11488 ft | 168 kts | 147° |
| 2026-04-22 01:11 | 39.43484 | -106.67737 | 11631 ft | 162 kts | 146° |
| 2026-04-22 01:11 | 39.42571 | -106.66946 | 11825 ft | 155 kts | 162° |
| 2026-04-22 01:11 | 39.41502 | -106.66823 | 11861 ft | 158 kts | 187° |
| 2026-04-22 01:11 | 39.40415 | -106.67128 | 11895 ft | 160 kts | 200° |
| 2026-04-22 01:12 | 39.39393 | -106.67702 | 11904 ft | 160 kts | 208° |
| 2026-04-22 01:12 | 39.38399 | -106.68299 | 12017 ft | 155 kts | 208° |
| 2026-04-22 01:12 | 39.37449 | -106.68951 | 12238 ft | 155 kts | 210° |
| 2026-04-22 01:12 | 39.36482 | -106.69627 | 12276 ft | 158 kts | 210° |
| 2026-04-22 01:13 | 39.35536 | -106.70336 | 12426 ft | 151 kts | 213° |
| 2026-04-22 01:13 | 39.34657 | -106.71049 | 12515 ft | 152 kts | 213° |
| 2026-04-22 01:13 | 39.34040 | -106.71503 | 12536 ft | 155 kts | 210° |
| 2026-04-22 01:13 | 39.32742 | -106.72265 | 12667 ft | 156 kts | 204° |
| 2026-04-22 01:14 | 39.31690 | -106.72729 | 12626 ft | 163 kts | 198° |
| 2026-04-22 01:14 | 39.30588 | -106.73060 | 12754 ft | 160 kts | 194° |
| 2026-04-22 01:14 | 39.29499 | -106.73231 | 12851 ft | 161 kts | 184° |
| 2026-04-22 01:14 | 39.28387 | -106.73087 | 12973 ft | 161 kts | 172° |
| 2026-04-22 01:15 | 39.27437 | -106.72324 | 13045 ft | 173 kts | 131° |
| 2026-04-22 01:15 | 39.27159 | -106.71305 | 13012 ft | 184 kts | 101° |
| 2026-04-22 01:15 | 39.27112 | -106.69675 | 13130 ft | 180 kts | 92° |
| 2026-04-22 01:15 | 39.27128 | -106.68048 | 13191 ft | 182 kts | 91° |
| 2026-04-22 01:16 | 39.27159 | -106.66429 | 13294 ft | 178 kts | 90° |
| 2026-04-22 01:16 | 39.27186 | -106.64850 | 13376 ft | 177 kts | 91° |
| 2026-04-22 01:16 | 39.27190 | -106.63241 | 13389 ft | 182 kts | 91° |
| 2026-04-22 01:16 | 39.27232 | -106.61615 | 13464 ft | 180 kts | 90° |
| 2026-04-22 01:17 | 39.27283 | -106.60006 | 13413 ft | 177 kts | 89° |
| 2026-04-22 01:17 | 39.27362 | -106.58423 | 13579 ft | 177 kts | 88° |
| 2026-04-22 01:17 | 39.27460 | -106.56825 | 13556 ft | 178 kts | 88° |
| 2026-04-22 01:17 | 39.27588 | -106.55208 | 13659 ft | 181 kts | 86° |
| 2026-04-22 01:18 | 39.27685 | -106.53601 | 13817 ft | 179 kts | 89° |
| 2026-04-22 01:18 | 39.27806 | -106.51992 | 13846 ft | 181 kts | 85° |
| 2026-04-22 01:18 | 39.27982 | -106.50379 | 13839 ft | 183 kts | 85° |
| 2026-04-22 01:18 | 39.28146 | -106.48719 | 13652 ft | 191 kts | 86° |
| 2026-04-22 01:19 | 39.28228 | -106.46989 | 13456 ft | 196 kts | 90° |
| 2026-04-22 01:19 | 39.28307 | -106.45214 | 13167 ft | 201 kts | 88° |
| 2026-04-22 01:19 | 39.28446 | -106.43421 | 12939 ft | 203 kts | 85° |
| 2026-04-22 01:19 | 39.28564 | -106.41586 | 12657 ft | 205 kts | 92° |
| 2026-04-22 01:20 | 39.28339 | -106.39811 | 12415 ft | 198 kts | 113° |
| 2026-04-22 01:20 | 39.27747 | -106.38269 | 12296 ft | 190 kts | 122° |
| 2026-04-22 01:20 | 39.27053 | -106.36837 | 12147 ft | 188 kts | 128° |
| 2026-04-22 01:20 | 39.26118 | -106.35682 | 11956 ft | 186 kts | 144° |
| 2026-04-22 01:21 | 39.25058 | -106.34759 | 11740 ft | 179 kts | 159° |
| 2026-04-22 01:21 | 39.23892 | -106.34307 | 11628 ft | 172 kts | 167° |
| 2026-04-22 01:21 | 39.22750 | -106.33898 | 11508 ft | 171 kts | 170° |
| 2026-04-22 01:21 | 39.21595 | -106.33578 | 11388 ft | 165 kts | 174° |
| 2026-04-22 01:22 | 39.20545 | -106.33341 | 11148 ft | 139 kts | 176° |
| 2026-04-22 01:22 | 39.19683 | -106.33160 | 10920 ft | 123 kts | 170° |
| 2026-04-22 01:22 | 39.19109 | -106.32402 | 10750 ft | 126 kts | 110° |
| 2026-04-22 01:22 | 39.19266 | -106.31350 | 10622 ft | 119 kts | 45° |
| 2026-04-22 01:23 | 39.19996 | -106.31055 | 10406 ft | 109 kts | 342° |
| 2026-04-22 01:23 | 39.20687 | -106.31359 | 10147 ft | 105 kts | 342° |
| 2026-04-22 01:23 | 39.21401 | -106.31525 | 9935 ft | 99 kts | 348° |
| 2026-04-22 01:23 | 39.21993 | -106.31657 | 9934 ft | 74 kts | 349° |
| 2026-04-22 01:24 | 39.22357 | -106.31730 | 9937 ft | 32 kts | 350° |
| 2026-04-22 01:24 | 39.22467 | -106.31744 | 9938 ft | 10 kts | 26° |
| 2026-04-22 01:24 | 39.22490 | -106.31676 | 9938 ft | 8 kts | 66° |
| 2026-04-22 01:24 | 39.22548 | -106.31663 | 9937 ft | 7 kts | 28° |
| 2026-04-22 01:25 | 39.22557 | -106.31640 | 9937 ft | 3 kts | 78° |
| 2026-04-22 01:25 | 39.22558 | -106.31632 | 9932 ft | 0 kts | 78° |